sensor_id;sensor_type;location;lat;lon;timestamp;P1;durP1;ratioP1;P2;durP2;ratioP2
13327;SDS011;6733;51.044;3.746;2023-02-28T00:01:19;7.53;;;5.53;;
13327;SDS011;6733;51.044;3.746;2023-02-28T00:03:46;8.97;;;5.83;;
13327;SDS011;6733;51.044;3.746;2023-02-28T00:06:12;9.63;;;5.87;;
13327;SDS011;6733;51.044;3.746;2023-02-28T00:08:38;7.27;;;5.77;;
13327;SDS011;6733;51.044;3.746;2023-02-28T00:11:06;6.03;;;5.43;;
13327;SDS011;6733;51.044;3.746;2023-02-28T00:13:34;9.20;;;5.97;;
13327;SDS011;6733;51.044;3.746;2023-02-28T00:16:07;8.93;;;5.80;;
13327;SDS011;6733;51.044;3.746;2023-02-28T00:18:36;7.17;;;6.20;;
13327;SDS011;6733;51.044;3.746;2023-02-28T00:21:02;10.20;;;5.53;;
13327;SDS011;6733;51.044;3.746;2023-02-28T00:23:29;6.63;;;5.50;;
13327;SDS011;6733;51.044;3.746;2023-02-28T00:25:55;8.70;;;6.07;;
13327;SDS011;6733;51.044;3.746;2023-02-28T00:28:22;7.03;;;5.53;;
13327;SDS011;6733;51.044;3.746;2023-02-28T00:30:48;7.00;;;6.00;;
13327;SDS011;6733;51.044;3.746;2023-02-28T00:33:15;6.83;;;5.87;;
13327;SDS011;6733;51.044;3.746;2023-02-28T00:35:41;7.97;;;6.07;;
13327;SDS011;6733;51.044;3.746;2023-02-28T00:38:07;8.00;;;5.53;;
13327;SDS011;6733;51.044;3.746;2023-02-28T00:40:34;8.97;;;6.13;;
13327;SDS011;6733;51.044;3.746;2023-02-28T00:43:00;8.97;;;6.60;;
13327;SDS011;6733;51.044;3.746;2023-02-28T00:45:26;8.30;;;6.37;;
13327;SDS011;6733;51.044;3.746;2023-02-28T00:47:53;7.10;;;6.30;;
13327;SDS011;6733;51.044;3.746;2023-02-28T00:50:19;9.30;;;6.70;;
13327;SDS011;6733;51.044;3.746;2023-02-28T00:52:46;7.70;;;6.63;;
13327;SDS011;6733;51.044;3.746;2023-02-28T00:55:13;10.30;;;6.67;;
13327;SDS011;6733;51.044;3.746;2023-02-28T00:57:39;7.70;;;6.80;;
13327;SDS011;6733;51.044;3.746;2023-02-28T01:00:06;11.23;;;6.07;;
13327;SDS011;6733;51.044;3.746;2023-02-28T01:02:33;7.23;;;6.40;;
13327;SDS011;6733;51.044;3.746;2023-02-28T01:04:59;7.53;;;6.50;;
13327;SDS011;6733;51.044;3.746;2023-02-28T01:07:25;8.87;;;6.90;;
13327;SDS011;6733;51.044;3.746;2023-02-28T01:09:51;8.43;;;6.93;;
13327;SDS011;6733;51.044;3.746;2023-02-28T01:12:18;7.80;;;6.77;;
13327;SDS011;6733;51.044;3.746;2023-02-28T01:14:44;8.17;;;7.10;;
13327;SDS011;6733;51.044;3.746;2023-02-28T01:17:10;8.23;;;6.37;;
13327;SDS011;6733;51.044;3.746;2023-02-28T01:19:36;8.43;;;6.93;;
13327;SDS011;6733;51.044;3.746;2023-02-28T01:22:03;8.57;;;6.80;;
13327;SDS011;6733;51.044;3.746;2023-02-28T01:24:32;11.07;;;6.97;;
13327;SDS011;6733;51.044;3.746;2023-02-28T01:26:58;8.90;;;6.57;;
13327;SDS011;6733;51.044;3.746;2023-02-28T01:29:24;8.43;;;6.87;;
13327;SDS011;6733;51.044;3.746;2023-02-28T01:31:50;9.23;;;6.93;;
13327;SDS011;6733;51.044;3.746;2023-02-28T01:34:16;12.67;;;6.93;;
13327;SDS011;6733;51.044;3.746;2023-02-28T01:36:44;8.73;;;7.00;;
13327;SDS011;6733;51.044;3.746;2023-02-28T01:39:11;8.17;;;6.97;;
13327;SDS011;6733;51.044;3.746;2023-02-28T01:41:38;9.23;;;7.03;;
13327;SDS011;6733;51.044;3.746;2023-02-28T01:44:06;8.23;;;7.07;;
13327;SDS011;6733;51.044;3.746;2023-02-28T01:46:52;7.87;;;6.67;;
13327;SDS011;6733;51.044;3.746;2023-02-28T01:49:18;8.00;;;6.80;;
13327;SDS011;6733;51.044;3.746;2023-02-28T01:51:46;10.87;;;6.43;;
13327;SDS011;6733;51.044;3.746;2023-02-28T01:54:27;8.97;;;6.93;;
13327;SDS011;6733;51.044;3.746;2023-02-28T01:57:13;7.97;;;7.13;;
13327;SDS011;6733;51.044;3.746;2023-02-28T01:59:43;9.23;;;7.40;;
13327;SDS011;6733;51.044;3.746;2023-02-28T02:02:16;9.53;;;7.07;;
13327;SDS011;6733;51.044;3.746;2023-02-28T02:04:54;10.33;;;7.40;;
13327;SDS011;6733;51.044;3.746;2023-02-28T02:07:37;12.03;;;7.53;;
13327;SDS011;6733;51.044;3.746;2023-02-28T02:15:14;9.33;;;7.30;;
13327;SDS011;6733;51.044;3.746;2023-02-28T02:17:48;8.30;;;7.27;;
13327;SDS011;6733;51.044;3.746;2023-02-28T02:23:33;9.40;;;7.63;;
13327;SDS011;6733;51.044;3.746;2023-02-28T02:36:18;9.43;;;8.10;;
13327;SDS011;6733;51.044;3.746;2023-02-28T02:41:18;11.53;;;8.03;;
13327;SDS011;6733;51.044;3.746;2023-02-28T02:44:12;9.93;;;8.30;;
13327;SDS011;6733;51.044;3.746;2023-02-28T02:46:47;9.47;;;8.07;;
13327;SDS011;6733;51.044;3.746;2023-02-28T02:49:18;9.20;;;7.53;;
13327;SDS011;6733;51.044;3.746;2023-02-28T02:51:56;8.83;;;7.63;;
13327;SDS011;6733;51.044;3.746;2023-02-28T02:54:27;9.87;;;8.30;;
13327;SDS011;6733;51.044;3.746;2023-02-28T02:56:59;9.57;;;7.67;;
13327;SDS011;6733;51.044;3.746;2023-02-28T02:59:29;9.00;;;8.10;;
13327;SDS011;6733;51.044;3.746;2023-02-28T03:02:01;13.53;;;7.90;;
13327;SDS011;6733;51.044;3.746;2023-02-28T03:04:34;11.17;;;7.83;;
13327;SDS011;6733;51.044;3.746;2023-02-28T03:07:07;8.27;;;7.30;;
13327;SDS011;6733;51.044;3.746;2023-02-28T03:09:36;9.60;;;7.43;;
13327;SDS011;6733;51.044;3.746;2023-02-28T03:12:02;9.03;;;8.13;;
13327;SDS011;6733;51.044;3.746;2023-02-28T03:23:07;8.57;;;7.67;;
13327;SDS011;6733;51.044;3.746;2023-02-28T03:25:58;11.27;;;7.70;;
13327;SDS011;6733;51.044;3.746;2023-02-28T03:36:38;8.07;;;7.27;;
13327;SDS011;6733;51.044;3.746;2023-02-28T03:39:15;10.93;;;7.87;;
13327;SDS011;6733;51.044;3.746;2023-02-28T03:41:56;11.93;;;8.47;;
13327;SDS011;6733;51.044;3.746;2023-02-28T03:45:08;9.47;;;7.87;;
13327;SDS011;6733;51.044;3.746;2023-02-28T03:52:36;8.90;;;7.70;;
13327;SDS011;6733;51.044;3.746;2023-02-28T03:55:09;10.30;;;8.10;;
13327;SDS011;6733;51.044;3.746;2023-02-28T04:00:27;8.73;;;7.63;;
13327;SDS011;6733;51.044;3.746;2023-02-28T04:02:58;10.77;;;8.07;;
13327;SDS011;6733;51.044;3.746;2023-02-28T04:05:24;12.43;;;8.60;;
13327;SDS011;6733;51.044;3.746;2023-02-28T04:07:52;11.03;;;7.77;;
13327;SDS011;6733;51.044;3.746;2023-02-28T04:10:19;9.40;;;7.30;;
13327;SDS011;6733;51.044;3.746;2023-02-28T04:12:45;9.10;;;7.97;;
13327;SDS011;6733;51.044;3.746;2023-02-28T04:15:11;10.43;;;8.23;;
13327;SDS011;6733;51.044;3.746;2023-02-28T04:17:38;11.93;;;8.00;;
13327;SDS011;6733;51.044;3.746;2023-02-28T04:20:04;9.03;;;8.10;;
13327;SDS011;6733;51.044;3.746;2023-02-28T04:22:35;9.30;;;7.77;;
13327;SDS011;6733;51.044;3.746;2023-02-28T04:25:02;8.57;;;7.67;;
13327;SDS011;6733;51.044;3.746;2023-02-28T04:27:28;9.73;;;8.07;;
13327;SDS011;6733;51.044;3.746;2023-02-28T04:29:54;10.00;;;7.63;;
13327;SDS011;6733;51.044;3.746;2023-02-28T04:32:20;8.33;;;7.30;;
13327;SDS011;6733;51.044;3.746;2023-02-28T04:34:47;9.40;;;7.67;;
13327;SDS011;6733;51.044;3.746;2023-02-28T04:37:13;10.53;;;8.10;;
13327;SDS011;6733;51.044;3.746;2023-02-28T04:39:39;11.73;;;7.73;;
13327;SDS011;6733;51.044;3.746;2023-02-28T04:42:06;12.40;;;7.83;;
13327;SDS011;6733;51.044;3.746;2023-02-28T04:44:32;14.40;;;8.47;;
13327;SDS011;6733;51.044;3.746;2023-02-28T04:46:58;9.00;;;7.40;;
13327;SDS011;6733;51.044;3.746;2023-02-28T04:49:24;8.23;;;6.90;;
13327;SDS011;6733;51.044;3.746;2023-02-28T04:51:51;11.23;;;7.30;;
13327;SDS011;6733;51.044;3.746;2023-02-28T04:54:18;8.83;;;7.93;;
13327;SDS011;6733;51.044;3.746;2023-02-28T04:56:44;11.00;;;7.80;;
13327;SDS011;6733;51.044;3.746;2023-02-28T04:59:10;10.00;;;8.13;;
13327;SDS011;6733;51.044;3.746;2023-02-28T05:01:36;10.70;;;7.60;;
13327;SDS011;6733;51.044;3.746;2023-02-28T05:04:05;8.67;;;7.23;;
13327;SDS011;6733;51.044;3.746;2023-02-28T05:06:32;10.90;;;7.20;;
13327;SDS011;6733;51.044;3.746;2023-02-28T05:08:59;10.27;;;8.00;;
13327;SDS011;6733;51.044;3.746;2023-02-28T05:11:26;8.67;;;7.77;;
13327;SDS011;6733;51.044;3.746;2023-02-28T05:14:13;9.10;;;7.67;;
13327;SDS011;6733;51.044;3.746;2023-02-28T05:16:39;8.53;;;7.63;;
13327;SDS011;6733;51.044;3.746;2023-02-28T05:19:06;9.93;;;7.70;;
13327;SDS011;6733;51.044;3.746;2023-02-28T05:21:36;8.63;;;7.20;;
13327;SDS011;6733;51.044;3.746;2023-02-28T05:24:31;10.07;;;7.73;;
13327;SDS011;6733;51.044;3.746;2023-02-28T05:26:57;10.07;;;7.70;;
13327;SDS011;6733;51.044;3.746;2023-02-28T05:29:24;8.23;;;6.73;;
13327;SDS011;6733;51.044;3.746;2023-02-28T05:31:50;9.30;;;6.77;;
13327;SDS011;6733;51.044;3.746;2023-02-28T05:34:16;12.23;;;7.30;;
13327;SDS011;6733;51.044;3.746;2023-02-28T05:36:43;10.17;;;7.23;;
13327;SDS011;6733;51.044;3.746;2023-02-28T05:39:09;9.97;;;7.80;;
13327;SDS011;6733;51.044;3.746;2023-02-28T05:41:41;7.70;;;6.90;;
13327;SDS011;6733;51.044;3.746;2023-02-28T05:44:08;11.57;;;7.30;;
13327;SDS011;6733;51.044;3.746;2023-02-28T05:46:35;8.53;;;7.60;;
13327;SDS011;6733;51.044;3.746;2023-02-28T05:49:01;13.03;;;7.43;;
13327;SDS011;6733;51.044;3.746;2023-02-28T05:51:27;8.27;;;7.47;;
13327;SDS011;6733;51.044;3.746;2023-02-28T05:53:54;10.77;;;7.77;;
13327;SDS011;6733;51.044;3.746;2023-02-28T05:56:23;12.60;;;8.07;;
13327;SDS011;6733;51.044;3.746;2023-02-28T05:58:49;12.00;;;7.33;;
13327;SDS011;6733;51.044;3.746;2023-02-28T06:01:20;8.73;;;7.13;;
13327;SDS011;6733;51.044;3.746;2023-02-28T06:03:49;11.07;;;6.83;;
13327;SDS011;6733;51.044;3.746;2023-02-28T06:06:16;10.03;;;7.93;;
13327;SDS011;6733;51.044;3.746;2023-02-28T06:08:42;10.40;;;7.63;;
13327;SDS011;6733;51.044;3.746;2023-02-28T06:11:10;9.30;;;7.27;;
13327;SDS011;6733;51.044;3.746;2023-02-28T06:13:36;8.87;;;7.40;;
13327;SDS011;6733;51.044;3.746;2023-02-28T06:16:02;12.03;;;7.17;;
13327;SDS011;6733;51.044;3.746;2023-02-28T06:18:29;11.20;;;7.63;;
13327;SDS011;6733;51.044;3.746;2023-02-28T06:20:55;10.50;;;7.20;;
13327;SDS011;6733;51.044;3.746;2023-02-28T06:23:21;9.17;;;7.13;;
13327;SDS011;6733;51.044;3.746;2023-02-28T06:25:48;9.20;;;6.80;;
13327;SDS011;6733;51.044;3.746;2023-02-28T06:28:15;7.77;;;6.60;;
13327;SDS011;6733;51.044;3.746;2023-02-28T06:30:41;9.30;;;7.20;;
13327;SDS011;6733;51.044;3.746;2023-02-28T06:33:07;11.30;;;7.90;;
13327;SDS011;6733;51.044;3.746;2023-02-28T06:35:33;11.30;;;7.83;;
13327;SDS011;6733;51.044;3.746;2023-02-28T06:38:00;11.53;;;7.60;;
13327;SDS011;6733;51.044;3.746;2023-02-28T06:40:27;15.40;;;7.80;;
13327;SDS011;6733;51.044;3.746;2023-02-28T06:42:53;10.97;;;8.23;;
13327;SDS011;6733;51.044;3.746;2023-02-28T06:45:19;9.30;;;7.53;;
13327;SDS011;6733;51.044;3.746;2023-02-28T06:47:45;10.87;;;7.27;;
13327;SDS011;6733;51.044;3.746;2023-02-28T06:50:16;11.37;;;8.23;;
13327;SDS011;6733;51.044;3.746;2023-02-28T06:52:46;8.87;;;6.87;;
13327;SDS011;6733;51.044;3.746;2023-02-28T06:55:12;8.83;;;7.77;;
13327;SDS011;6733;51.044;3.746;2023-02-28T06:57:38;9.27;;;7.20;;
13327;SDS011;6733;51.044;3.746;2023-02-28T07:00:08;14.73;;;7.57;;
13327;SDS011;6733;51.044;3.746;2023-02-28T07:02:35;11.37;;;7.60;;
13327;SDS011;6733;51.044;3.746;2023-02-28T07:05:03;10.53;;;7.57;;
13327;SDS011;6733;51.044;3.746;2023-02-28T07:07:30;8.33;;;7.20;;
13327;SDS011;6733;51.044;3.746;2023-02-28T07:09:57;11.40;;;7.37;;
13327;SDS011;6733;51.044;3.746;2023-02-28T07:12:24;9.43;;;6.53;;
13327;SDS011;6733;51.044;3.746;2023-02-28T07:14:50;10.10;;;7.00;;
13327;SDS011;6733;51.044;3.746;2023-02-28T07:17:16;10.93;;;7.20;;
13327;SDS011;6733;51.044;3.746;2023-02-28T07:19:42;9.10;;;7.23;;
13327;SDS011;6733;51.044;3.746;2023-02-28T07:22:08;10.67;;;6.37;;
13327;SDS011;6733;51.044;3.746;2023-02-28T07:24:35;9.73;;;7.37;;
13327;SDS011;6733;51.044;3.746;2023-02-28T07:27:01;10.77;;;6.63;;
13327;SDS011;6733;51.044;3.746;2023-02-28T07:29:27;8.20;;;6.00;;
13327;SDS011;6733;51.044;3.746;2023-02-28T07:31:53;7.43;;;6.67;;
13327;SDS011;6733;51.044;3.746;2023-02-28T07:34:20;14.33;;;9.17;;
13327;SDS011;6733;51.044;3.746;2023-02-28T07:36:47;7.90;;;6.97;;
13327;SDS011;6733;51.044;3.746;2023-02-28T07:39:13;12.17;;;7.07;;
13327;SDS011;6733;51.044;3.746;2023-02-28T07:41:39;10.10;;;5.90;;
13327;SDS011;6733;51.044;3.746;2023-02-28T07:44:09;9.03;;;6.73;;
13327;SDS011;6733;51.044;3.746;2023-02-28T07:46:36;10.13;;;6.33;;
13327;SDS011;6733;51.044;3.746;2023-02-28T07:49:03;9.00;;;7.03;;
13327;SDS011;6733;51.044;3.746;2023-02-28T07:51:30;7.53;;;6.40;;
13327;SDS011;6733;51.044;3.746;2023-02-28T07:53:56;7.70;;;5.83;;
13327;SDS011;6733;51.044;3.746;2023-02-28T07:56:22;8.07;;;5.60;;
13327;SDS011;6733;51.044;3.746;2023-02-28T07:58:48;8.97;;;6.63;;
13327;SDS011;6733;51.044;3.746;2023-02-28T08:01:14;12.03;;;6.77;;
13327;SDS011;6733;51.044;3.746;2023-02-28T08:03:40;8.87;;;6.03;;
13327;SDS011;6733;51.044;3.746;2023-02-28T08:06:07;10.53;;;6.67;;
13327;SDS011;6733;51.044;3.746;2023-02-28T08:08:41;8.93;;;5.90;;
13327;SDS011;6733;51.044;3.746;2023-02-28T08:11:07;10.00;;;6.20;;
13327;SDS011;6733;51.044;3.746;2023-02-28T08:13:33;10.53;;;6.50;;
13327;SDS011;6733;51.044;3.746;2023-02-28T08:16:00;11.90;;;6.73;;
13327;SDS011;6733;51.044;3.746;2023-02-28T08:18:27;10.37;;;5.93;;
13327;SDS011;6733;51.044;3.746;2023-02-28T08:20:53;8.63;;;5.63;;
13327;SDS011;6733;51.044;3.746;2023-02-28T08:23:19;8.47;;;5.57;;
13327;SDS011;6733;51.044;3.746;2023-02-28T08:25:52;8.67;;;5.73;;
13327;SDS011;6733;51.044;3.746;2023-02-28T08:28:19;11.93;;;6.30;;
13327;SDS011;6733;51.044;3.746;2023-02-28T08:30:46;7.70;;;6.20;;
13327;SDS011;6733;51.044;3.746;2023-02-28T08:33:12;7.90;;;6.17;;
13327;SDS011;6733;51.044;3.746;2023-02-28T08:35:38;7.93;;;6.03;;
13327;SDS011;6733;51.044;3.746;2023-02-28T08:38:04;8.23;;;5.87;;
13327;SDS011;6733;51.044;3.746;2023-02-28T08:40:30;8.90;;;6.67;;
13327;SDS011;6733;51.044;3.746;2023-02-28T08:42:57;8.20;;;6.70;;
13327;SDS011;6733;51.044;3.746;2023-02-28T08:45:24;8.47;;;6.27;;
13327;SDS011;6733;51.044;3.746;2023-02-28T08:47:50;8.23;;;6.20;;
13327;SDS011;6733;51.044;3.746;2023-02-28T08:50:18;7.80;;;6.60;;
13327;SDS011;6733;51.044;3.746;2023-02-28T08:52:44;11.47;;;6.00;;
13327;SDS011;6733;51.044;3.746;2023-02-28T08:55:10;6.70;;;5.87;;
13327;SDS011;6733;51.044;3.746;2023-02-28T08:57:36;10.23;;;5.60;;
13327;SDS011;6733;51.044;3.746;2023-02-28T09:00:03;8.77;;;6.00;;
13327;SDS011;6733;51.044;3.746;2023-02-28T09:02:30;8.87;;;6.37;;
13327;SDS011;6733;51.044;3.746;2023-02-28T09:04:57;9.07;;;5.97;;
13327;SDS011;6733;51.044;3.746;2023-02-28T09:07:24;7.63;;;5.63;;
13327;SDS011;6733;51.044;3.746;2023-02-28T09:09:50;7.70;;;6.40;;
13327;SDS011;6733;51.044;3.746;2023-02-28T09:14:50;11.53;;;5.73;;
13327;SDS011;6733;51.044;3.746;2023-02-28T09:17:17;6.33;;;5.73;;
13327;SDS011;6733;51.044;3.746;2023-02-28T09:19:44;6.97;;;6.27;;
13327;SDS011;6733;51.044;3.746;2023-02-28T09:22:10;9.23;;;7.07;;
13327;SDS011;6733;51.044;3.746;2023-02-28T09:24:37;10.93;;;6.80;;
13327;SDS011;6733;51.044;3.746;2023-02-28T09:27:04;7.37;;;6.67;;
13327;SDS011;6733;51.044;3.746;2023-02-28T09:29:31;10.77;;;7.63;;
13327;SDS011;6733;51.044;3.746;2023-02-28T09:31:58;9.60;;;8.63;;
13327;SDS011;6733;51.044;3.746;2023-02-28T09:34:27;6.53;;;5.67;;
13327;SDS011;6733;51.044;3.746;2023-02-28T09:36:56;8.37;;;6.23;;
13327;SDS011;6733;51.044;3.746;2023-02-28T09:39:22;6.77;;;4.97;;
13327;SDS011;6733;51.044;3.746;2023-02-28T09:41:52;6.67;;;5.80;;
13327;SDS011;6733;51.044;3.746;2023-02-28T09:47:22;7.60;;;5.63;;
13327;SDS011;6733;51.044;3.746;2023-02-28T09:52:54;7.33;;;4.90;;
13327;SDS011;6733;51.044;3.746;2023-02-28T09:57:57;11.77;;;5.17;;
13327;SDS011;6733;51.044;3.746;2023-02-28T10:00:30;6.83;;;5.03;;
13327;SDS011;6733;51.044;3.746;2023-02-28T10:03:24;7.20;;;4.30;;
13327;SDS011;6733;51.044;3.746;2023-02-28T10:05:58;7.20;;;4.93;;
13327;SDS011;6733;51.044;3.746;2023-02-28T10:08:30;5.60;;;4.77;;
13327;SDS011;6733;51.044;3.746;2023-02-28T10:10:58;8.67;;;4.87;;
13327;SDS011;6733;51.044;3.746;2023-02-28T10:21:30;7.97;;;4.43;;
13327;SDS011;6733;51.044;3.746;2023-02-28T10:24:11;10.67;;;7.00;;
13327;SDS011;6733;51.044;3.746;2023-02-28T10:27:05;6.90;;;5.57;;
13327;SDS011;6733;51.044;3.746;2023-02-28T10:29:38;7.57;;;5.40;;
13327;SDS011;6733;51.044;3.746;2023-02-28T10:32:08;9.80;;;5.90;;
13327;SDS011;6733;51.044;3.746;2023-02-28T10:34:40;8.30;;;4.93;;
13327;SDS011;6733;51.044;3.746;2023-02-28T10:37:06;6.70;;;4.40;;
13327;SDS011;6733;51.044;3.746;2023-02-28T10:39:43;5.23;;;3.77;;
13327;SDS011;6733;51.044;3.746;2023-02-28T10:42:44;7.23;;;4.50;;
13327;SDS011;6733;51.044;3.746;2023-02-28T10:45:14;4.93;;;4.00;;
13327;SDS011;6733;51.044;3.746;2023-02-28T10:47:52;9.23;;;5.77;;
13327;SDS011;6733;51.044;3.746;2023-02-28T10:55:41;4.07;;;2.90;;
13327;SDS011;6733;51.044;3.746;2023-02-28T10:58:26;6.83;;;3.83;;
13327;SDS011;6733;51.044;3.746;2023-02-28T11:00:55;4.77;;;3.50;;
13327;SDS011;6733;51.044;3.746;2023-02-28T11:03:28;5.53;;;3.20;;
13327;SDS011;6733;51.044;3.746;2023-02-28T11:05:57;4.20;;;3.20;;
13327;SDS011;6733;51.044;3.746;2023-02-28T11:08:24;3.47;;;3.00;;
13327;SDS011;6733;51.044;3.746;2023-02-28T11:10:55;7.03;;;5.57;;
13327;SDS011;6733;51.044;3.746;2023-02-28T11:13:27;4.60;;;3.80;;
13327;SDS011;6733;51.044;3.746;2023-02-28T11:15:58;4.90;;;4.37;;
13327;SDS011;6733;51.044;3.746;2023-02-28T11:18:34;6.20;;;3.90;;
13327;SDS011;6733;51.044;3.746;2023-02-28T11:21:08;6.70;;;3.07;;
13327;SDS011;6733;51.044;3.746;2023-02-28T11:23:36;4.80;;;3.33;;
13327;SDS011;6733;51.044;3.746;2023-02-28T11:26:06;3.57;;;3.20;;
13327;SDS011;6733;51.044;3.746;2023-02-28T11:28:38;28.87;;;15.43;;
13327;SDS011;6733;51.044;3.746;2023-02-28T11:36:19;6.40;;;3.60;;
13327;SDS011;6733;51.044;3.746;2023-02-28T11:38:51;5.03;;;3.73;;
13327;SDS011;6733;51.044;3.746;2023-02-28T11:41:35;3.63;;;3.03;;
13327;SDS011;6733;51.044;3.746;2023-02-28T11:47:07;4.20;;;3.10;;
13327;SDS011;6733;51.044;3.746;2023-02-28T11:52:56;5.00;;;2.70;;
13327;SDS011;6733;51.044;3.746;2023-02-28T11:55:35;4.10;;;3.70;;
13327;SDS011;6733;51.044;3.746;2023-02-28T11:58:24;4.87;;;3.37;;
13327;SDS011;6733;51.044;3.746;2023-02-28T12:01:02;5.70;;;3.00;;
13327;SDS011;6733;51.044;3.746;2023-02-28T12:03:45;7.47;;;3.00;;
13327;SDS011;6733;51.044;3.746;2023-02-28T12:06:25;4.80;;;3.07;;
13327;SDS011;6733;51.044;3.746;2023-02-28T12:09:52;4.17;;;2.90;;
13327;SDS011;6733;51.044;3.746;2023-02-28T12:12:23;3.30;;;3.00;;
13327;SDS011;6733;51.044;3.746;2023-02-28T12:17:47;2.90;;;2.60;;
13327;SDS011;6733;51.044;3.746;2023-02-28T12:20:24;5.17;;;2.67;;
13327;SDS011;6733;51.044;3.746;2023-02-28T12:22:59;5.00;;;3.30;;
13327;SDS011;6733;51.044;3.746;2023-02-28T12:25:50;3.50;;;2.90;;
13327;SDS011;6733;51.044;3.746;2023-02-28T12:28:37;3.10;;;2.63;;
13327;SDS011;6733;51.044;3.746;2023-02-28T12:31:09;3.77;;;2.70;;
13327;SDS011;6733;51.044;3.746;2023-02-28T12:33:38;3.73;;;2.73;;
13327;SDS011;6733;51.044;3.746;2023-02-28T12:36:13;3.50;;;2.80;;
13327;SDS011;6733;51.044;3.746;2023-02-28T12:38:45;4.33;;;2.73;;
13327;SDS011;6733;51.044;3.746;2023-02-28T12:43:52;2.77;;;2.50;;
13327;SDS011;6733;51.044;3.746;2023-02-28T12:51:57;3.30;;;3.00;;
13327;SDS011;6733;51.044;3.746;2023-02-28T12:57:15;3.37;;;3.03;;
13327;SDS011;6733;51.044;3.746;2023-02-28T12:59:57;2.57;;;2.37;;
13327;SDS011;6733;51.044;3.746;2023-02-28T13:11:01;3.90;;;2.80;;
13327;SDS011;6733;51.044;3.746;2023-02-28T13:13:29;3.60;;;2.40;;
13327;SDS011;6733;51.044;3.746;2023-02-28T13:15:58;4.43;;;3.20;;
13327;SDS011;6733;51.044;3.746;2023-02-28T13:21:03;3.03;;;2.43;;
13327;SDS011;6733;51.044;3.746;2023-02-28T13:23:40;2.53;;;2.33;;
13327;SDS011;6733;51.044;3.746;2023-02-28T13:28:57;4.30;;;2.43;;
13327;SDS011;6733;51.044;3.746;2023-02-28T13:31:26;3.17;;;2.50;;
13327;SDS011;6733;51.044;3.746;2023-02-28T13:36:28;2.50;;;2.30;;
13327;SDS011;6733;51.044;3.746;2023-02-28T13:39:01;3.20;;;2.90;;
13327;SDS011;6733;51.044;3.746;2023-02-28T13:41:47;8.33;;;3.33;;
13327;SDS011;6733;51.044;3.746;2023-02-28T13:44:18;3.50;;;2.70;;
13327;SDS011;6733;51.044;3.746;2023-02-28T14:02:37;3.30;;;2.80;;
13327;SDS011;6733;51.044;3.746;2023-02-28T14:05:34;6.13;;;4.77;;
13327;SDS011;6733;51.044;3.746;2023-02-28T14:08:04;2.73;;;2.23;;
13327;SDS011;6733;51.044;3.746;2023-02-28T14:10:44;5.37;;;3.03;;
13327;SDS011;6733;51.044;3.746;2023-02-28T14:13:17;4.70;;;4.13;;
13327;SDS011;6733;51.044;3.746;2023-02-28T14:16:03;4.67;;;4.23;;
13327;SDS011;6733;51.044;3.746;2023-02-28T14:18:35;4.07;;;3.67;;
13327;SDS011;6733;51.044;3.746;2023-02-28T14:26:32;4.70;;;2.90;;
13327;SDS011;6733;51.044;3.746;2023-02-28T14:32:05;6.80;;;3.70;;
13327;SDS011;6733;51.044;3.746;2023-02-28T14:37:38;3.80;;;3.40;;
13327;SDS011;6733;51.044;3.746;2023-02-28T14:40:16;5.23;;;3.10;;
13327;SDS011;6733;51.044;3.746;2023-02-28T14:42:59;4.57;;;3.10;;
13327;SDS011;6733;51.044;3.746;2023-02-28T14:45:29;3.37;;;3.07;;
13327;SDS011;6733;51.044;3.746;2023-02-28T14:47:56;3.83;;;3.10;;
13327;SDS011;6733;51.044;3.746;2023-02-28T14:50:27;3.77;;;3.37;;
13327;SDS011;6733;51.044;3.746;2023-02-28T14:53:00;3.43;;;3.13;;
13327;SDS011;6733;51.044;3.746;2023-02-28T14:55:30;5.03;;;3.37;;
13327;SDS011;6733;51.044;3.746;2023-02-28T14:58:02;3.90;;;3.17;;
13327;SDS011;6733;51.044;3.746;2023-02-28T15:00:33;5.30;;;3.40;;
13327;SDS011;6733;51.044;3.746;2023-02-28T15:03:19;3.93;;;3.23;;
13327;SDS011;6733;51.044;3.746;2023-02-28T15:06:06;5.53;;;3.10;;
13327;SDS011;6733;51.044;3.746;2023-02-28T15:08:39;5.43;;;3.43;;
13327;SDS011;6733;51.044;3.746;2023-02-28T15:11:09;8.10;;;4.23;;
13327;SDS011;6733;51.044;3.746;2023-02-28T15:13:46;4.30;;;3.33;;
13327;SDS011;6733;51.044;3.746;2023-02-28T15:16:22;3.60;;;3.30;;
13327;SDS011;6733;51.044;3.746;2023-02-28T15:18:57;4.67;;;3.50;;
13327;SDS011;6733;51.044;3.746;2023-02-28T15:21:26;3.97;;;3.57;;
13327;SDS011;6733;51.044;3.746;2023-02-28T15:27:01;5.53;;;3.77;;
13327;SDS011;6733;51.044;3.746;2023-02-28T15:29:32;5.90;;;3.77;;
13327;SDS011;6733;51.044;3.746;2023-02-28T15:32:26;4.30;;;3.70;;
13327;SDS011;6733;51.044;3.746;2023-02-28T15:34:52;3.67;;;3.37;;
13327;SDS011;6733;51.044;3.746;2023-02-28T15:40:23;7.17;;;3.90;;
13327;SDS011;6733;51.044;3.746;2023-02-28T15:43:12;8.50;;;4.13;;
13327;SDS011;6733;51.044;3.746;2023-02-28T15:45:43;5.73;;;3.60;;
13327;SDS011;6733;51.044;3.746;2023-02-28T15:48:24;4.40;;;3.80;;
13327;SDS011;6733;51.044;3.746;2023-02-28T15:51:02;3.90;;;3.60;;
13327;SDS011;6733;51.044;3.746;2023-02-28T15:53:47;4.77;;;3.67;;
13327;SDS011;6733;51.044;3.746;2023-02-28T15:56:26;5.30;;;4.00;;
13327;SDS011;6733;51.044;3.746;2023-02-28T15:58:58;5.10;;;4.17;;
13327;SDS011;6733;51.044;3.746;2023-02-28T16:01:32;6.10;;;3.93;;
13327;SDS011;6733;51.044;3.746;2023-02-28T16:04:04;4.70;;;4.07;;
13327;SDS011;6733;51.044;3.746;2023-02-28T16:06:40;5.37;;;4.40;;
13327;SDS011;6733;51.044;3.746;2023-02-28T16:09:11;4.13;;;3.73;;
13327;SDS011;6733;51.044;3.746;2023-02-28T16:11:39;7.20;;;4.47;;
13327;SDS011;6733;51.044;3.746;2023-02-28T16:14:12;11.10;;;7.37;;
13327;SDS011;6733;51.044;3.746;2023-02-28T16:16:45;5.10;;;4.60;;
13327;SDS011;6733;51.044;3.746;2023-02-28T16:19:14;4.30;;;3.90;;
13327;SDS011;6733;51.044;3.746;2023-02-28T16:21:40;4.40;;;3.77;;
13327;SDS011;6733;51.044;3.746;2023-02-28T16:24:06;7.93;;;5.10;;
13327;SDS011;6733;51.044;3.746;2023-02-28T16:26:33;6.10;;;4.50;;
13327;SDS011;6733;51.044;3.746;2023-02-28T16:29:00;6.37;;;4.47;;
13327;SDS011;6733;51.044;3.746;2023-02-28T16:31:27;6.37;;;4.40;;
13327;SDS011;6733;51.044;3.746;2023-02-28T16:33:53;7.90;;;5.97;;
13327;SDS011;6733;51.044;3.746;2023-02-28T16:36:21;7.00;;;5.80;;
13327;SDS011;6733;51.044;3.746;2023-02-28T16:38:52;6.43;;;4.80;;
13327;SDS011;6733;51.044;3.746;2023-02-28T16:41:26;11.27;;;6.80;;
13327;SDS011;6733;51.044;3.746;2023-02-28T16:43:54;9.73;;;6.70;;
13327;SDS011;6733;51.044;3.746;2023-02-28T16:46:27;11.83;;;7.30;;
13327;SDS011;6733;51.044;3.746;2023-02-28T16:48:58;4.93;;;4.13;;
13327;SDS011;6733;51.044;3.746;2023-02-28T16:51:24;6.87;;;4.10;;
13327;SDS011;6733;51.044;3.746;2023-02-28T16:53:51;5.90;;;5.30;;
13327;SDS011;6733;51.044;3.746;2023-02-28T16:56:21;4.83;;;4.43;;
13327;SDS011;6733;51.044;3.746;2023-02-28T16:58:49;5.27;;;4.10;;
13327;SDS011;6733;51.044;3.746;2023-02-28T17:01:17;5.33;;;4.80;;
13327;SDS011;6733;51.044;3.746;2023-02-28T17:03:47;9.30;;;6.20;;
13327;SDS011;6733;51.044;3.746;2023-02-28T17:06:19;5.53;;;4.40;;
13327;SDS011;6733;51.044;3.746;2023-02-28T17:08:56;9.03;;;4.60;;
13327;SDS011;6733;51.044;3.746;2023-02-28T17:11:23;4.97;;;4.27;;
13327;SDS011;6733;51.044;3.746;2023-02-28T17:13:49;8.17;;;4.83;;
13327;SDS011;6733;51.044;3.746;2023-02-28T17:16:21;7.13;;;5.17;;
13327;SDS011;6733;51.044;3.746;2023-02-28T17:18:56;7.00;;;4.53;;
13327;SDS011;6733;51.044;3.746;2023-02-28T17:21:25;7.53;;;5.47;;
13327;SDS011;6733;51.044;3.746;2023-02-28T17:23:51;5.87;;;4.63;;
13327;SDS011;6733;51.044;3.746;2023-02-28T17:26:18;7.60;;;5.03;;
13327;SDS011;6733;51.044;3.746;2023-02-28T17:28:47;7.77;;;5.43;;
13327;SDS011;6733;51.044;3.746;2023-02-28T17:31:14;5.30;;;4.50;;
13327;SDS011;6733;51.044;3.746;2023-02-28T17:33:40;6.90;;;4.93;;
13327;SDS011;6733;51.044;3.746;2023-02-28T17:36:09;8.67;;;6.40;;
13327;SDS011;6733;51.044;3.746;2023-02-28T17:38:44;6.50;;;5.23;;
13327;SDS011;6733;51.044;3.746;2023-02-28T17:41:10;5.67;;;5.13;;
13327;SDS011;6733;51.044;3.746;2023-02-28T17:43:37;9.57;;;5.60;;